Time;durP1;ratioP1;P1;durP2;ratioP2;P2;SDS_P1;SDS_P2;PMS_P1;PMS_P2;Temp;Humidity;BMP_temperature;BMP_pressure;BME280_temperature;BME280_humidity;BME280_pressure;Samples;Min_cycle;Max_cycle;Signal;HPM_P1;HPM_P2
2021/11/13 00:01:39;;;;;;;46.97;30.40;;;3.70;99.90;;;;;;5047499;28;20453;-65
2021/11/13 00:04:06;;;;;;;53.40;31.60;;;3.70;99.90;;;;;;5048139;28;20478;-64
2021/11/13 00:06:33;;;;;;;52.23;30.40;;;3.70;99.90;;;;;;5046807;28;20490;-65
2021/11/13 00:09:01;;;;;;;47.90;31.83;;;3.80;99.90;;;;;;5047685;28;20448;-65
2021/11/13 00:11:29;;;;;;;48.23;30.37;;;3.70;99.90;;;;;;5047649;28;20463;-65
2021/11/13 00:14:01;;;;;;;48.73;30.50;;;3.70;99.90;;;;;;5048023;28;20973;-65
2021/11/13 00:16:28;;;;;;;48.63;29.80;;;3.70;99.90;;;;;;5046521;28;20575;-65
2021/11/13 00:18:54;;;;;;;53.97;29.87;;;3.70;99.90;;;;;;5047285;28;20498;-63
2021/11/13 00:21:21;;;;;;;69.60;32.93;;;3.70;99.90;;;;;;5047637;28;20448;-63
2021/11/13 00:23:48;;;;;;;53.90;30.27;;;3.70;99.90;;;;;;5047810;28;20456;-63
2021/11/13 00:26:16;;;;;;;68.63;30.57;;;3.80;99.90;;;;;;5047440;28;20825;-62
2021/11/13 00:28:43;;;;;;;75.37;33.60;;;3.70;99.90;;;;;;5047754;28;20452;-64
2021/11/13 00:31:10;;;;;;;61.63;31.63;;;3.60;99.90;;;;;;5047939;28;20475;-64
2021/11/13 00:33:37;;;;;;;51.73;30.70;;;3.50;99.90;;;;;;5047134;28;20837;-65
2021/11/13 00:36:04;;;;;;;61.30;31.50;;;3.50;99.90;;;;;;5047583;28;20552;-64
2021/11/13 00:38:31;;;;;;;76.53;32.23;;;3.60;99.90;;;;;;5045118;28;20491;-65
2021/11/13 00:40:58;;;;;;;57.30;30.67;;;3.50;99.90;;;;;;5047885;28;20460;-65
2021/11/13 00:43:27;;;;;;;51.20;31.50;;;3.60;99.90;;;;;;5046953;28;20447;-64
2021/11/13 00:45:54;;;;;;;72.03;34.30;;;3.60;99.90;;;;;;5047040;28;20474;-64
2021/11/13 00:48:21;;;;;;;48.63;31.57;;;3.60;99.90;;;;;;5045757;28;20831;-63
2021/11/13 00:50:48;;;;;;;47.63;32.93;;;3.60;99.90;;;;;;5047375;28;20945;-64
2021/11/13 00:53:16;;;;;;;52.17;33.13;;;3.80;99.90;;;;;;5047319;28;20448;-63
2021/11/13 00:55:43;;;;;;;48.00;30.97;;;3.80;99.90;;;;;;5047292;28;20476;-63
2021/11/13 00:58:10;;;;;;;44.30;33.17;;;3.80;99.90;;;;;;5046167;28;21001;-64
2021/11/13 01:00:39;;;;;;;41.23;29.93;;;3.90;99.90;;;;;;5046417;28;20835;-64
2021/11/13 01:03:07;;;;;;;61.60;34.00;;;3.90;99.90;;;;;;5048190;28;21101;-64
2021/11/13 01:05:34;;;;;;;63.97;35.43;;;3.80;99.90;;;;;;5047434;28;20502;-64
2021/11/13 01:08:01;;;;;;;51.27;31.33;;;3.80;99.90;;;;;;5045995;28;20991;-64
2021/11/13 01:10:28;;;;;;;64.13;33.23;;;3.90;99.90;;;;;;5046259;28;20467;-63
2021/11/13 01:12:55;;;;;;;45.83;30.80;;;3.80;99.90;;;;;;5043604;28;20977;-64
2021/11/13 01:15:23;;;;;;;54.53;30.67;;;3.80;99.90;;;;;;5046375;28;20842;-63
2021/11/13 01:17:51;;;;;;;47.33;31.53;;;3.90;99.90;;;;;;5042263;28;20487;-64
2021/11/13 01:20:20;;;;;;;67.47;31.00;;;3.90;99.90;;;;;;5045925;28;20987;-63
2021/11/13 01:22:48;;;;;;;75.23;31.33;;;3.80;99.90;;;;;;5046396;28;20498;-63
2021/11/13 01:25:15;;;;;;;67.30;32.40;;;3.70;99.90;;;;;;5046515;28;20441;-65
2021/11/13 01:27:43;;;;;;;90.20;34.73;;;3.50;99.90;;;;;;5044756;28;20816;-65
2021/11/13 01:30:14;;;;;;;98.17;33.83;;;3.40;99.90;;;;;;5046608;28;20840;-65
2021/11/13 01:32:41;;;;;;;80.00;36.03;;;3.40;99.90;;;;;;5046109;28;20486;-65
2021/11/13 01:35:10;;;;;;;135.17;37.00;;;3.30;99.90;;;;;;5047930;28;20465;-65
2021/11/13 01:37:38;;;;;;;105.70;35.50;;;3.20;99.90;;;;;;5047130;28;20491;-66
2021/11/13 01:40:09;;;;;;;83.37;32.50;;;3.20;99.90;;;;;;5049413;28;20459;-66
2021/11/13 01:42:37;;;;;;;100.10;33.80;;;3.10;99.90;;;;;;5049445;28;20446;-65
2021/11/13 01:45:06;;;;;;;69.30;32.30;;;3.10;99.90;;;;;;5049275;28;20215;-64
2021/11/13 01:47:33;;;;;;;78.27;33.10;;;3.00;99.90;;;;;;5048451;28;20459;-66
2021/11/13 01:50:00;;;;;;;51.73;30.30;;;3.00;99.90;;;;;;5052688;28;20450;-65
2021/11/13 01:52:28;;;;;;;50.20;31.00;;;3.00;99.90;;;;;;5053476;28;20444;-65
2021/11/13 01:54:55;;;;;;;49.47;31.40;;;3.00;99.90;;;;;;5053347;28;20450;-65
2021/11/13 01:57:23;;;;;;;74.83;33.63;;;3.00;99.90;;;;;;5051958;28;20467;-65
2021/11/13 01:59:52;;;;;;;51.77;31.57;;;3.10;99.90;;;;;;5053350;28;20448;-65
2021/11/13 02:02:20;;;;;;;52.47;30.33;;;3.20;99.90;;;;;;5053108;28;20479;-65
2021/11/13 02:04:47;;;;;;;47.03;29.60;;;3.20;99.90;;;;;;5052921;28;20444;-66
2021/11/13 02:07:13;;;;;;;47.30;29.70;;;3.20;99.90;;;;;;5051748;28;20477;-65
2021/11/13 02:09:42;;;;;;;38.70;26.80;;;3.20;99.90;;;;;;5052979;28;20538;-65
2021/11/13 02:12:09;;;;;;;46.93;30.27;;;3.20;99.90;;;;;;5052654;28;20462;-65
2021/11/13 02:14:36;;;;;;;38.67;27.60;;;3.20;99.90;;;;;;5053155;28;20463;-65
2021/11/13 02:17:03;;;;;;;39.83;27.83;;;3.20;99.90;;;;;;5051661;28;21320;-64
2021/11/13 02:19:30;;;;;;;44.97;30.20;;;3.20;99.90;;;;;;5053260;28;20855;-64
2021/11/13 02:22:00;;;;;;;38.80;26.83;;;3.20;99.90;;;;;;5052611;28;20440;-65
2021/11/13 02:24:27;;;;;;;40.77;27.67;;;3.30;99.90;;;;;;5052655;28;20529;-64
2021/11/13 02:26:54;;;;;;;46.00;28.80;;;3.30;99.90;;;;;;5051472;28;20477;-66
2021/11/13 02:29:21;;;;;;;35.87;27.07;;;3.20;99.90;;;;;;5052940;28;20455;-65
2021/11/13 02:31:49;;;;;;;54.13;28.37;;;3.20;99.90;;;;;;5052690;28;20451;-65
2021/11/13 02:34:16;;;;;;;57.13;28.73;;;3.20;99.90;;;;;;5052641;28;20961;-65
2021/11/13 02:36:43;;;;;;;38.73;26.40;;;3.30;99.90;;;;;;5051277;28;20471;-65
2021/11/13 02:39:13;;;;;;;37.60;27.60;;;3.30;99.90;;;;;;5052241;28;20489;-65
2021/11/13 02:41:43;;;;;;;46.07;27.13;;;3.30;99.90;;;;;;5052906;28;20462;-64
2021/11/13 02:44:11;;;;;;;42.57;27.27;;;3.30;99.90;;;;;;5052452;28;20451;-64
2021/11/13 02:46:38;;;;;;;54.90;27.20;;;3.30;99.90;;;;;;5051208;28;20501;-64
2021/11/13 02:49:06;;;;;;;83.17;31.17;;;3.30;99.90;;;;;;5052348;28;20475;-66
2021/11/13 02:51:33;;;;;;;52.27;27.83;;;3.30;99.90;;;;;;5052364;28;20457;-65
2021/11/13 02:54:00;;;;;;;45.13;26.87;;;3.30;99.90;;;;;;5052397;28;20792;-65
2021/11/13 02:56:28;;;;;;;37.97;26.50;;;3.30;99.90;;;;;;5051498;28;20473;-68
2021/11/13 02:58:55;;;;;;;50.40;27.60;;;3.30;99.90;;;;;;5051729;28;20493;-64
2021/11/13 03:01:24;;;;;;;34.77;25.70;;;3.30;99.90;;;;;;5051718;28;20447;-65
2021/11/13 03:03:52;;;;;;;42.17;25.97;;;3.20;99.90;;;;;;5052055;28;20452;-66
2021/11/13 03:06:19;;;;;;;45.67;28.13;;;3.20;99.90;;;;;;5051380;28;20474;-65
2021/11/13 03:08:49;;;;;;;42.23;25.47;;;3.20;99.90;;;;;;5051673;28;20971;-65
2021/11/13 03:11:18;;;;;;;42.17;25.90;;;3.30;99.90;;;;;;5052434;28;20881;-65
2021/11/13 03:13:48;;;;;;;48.90;28.50;;;3.30;99.90;;;;;;5052438;28;20448;-63
2021/11/13 03:16:18;;;;;;;36.20;26.53;;;3.40;99.90;;;;;;5051464;28;20463;-65
2021/11/13 03:18:45;;;;;;;38.27;28.17;;;3.30;99.90;;;;;;5051616;28;20988;-65
2021/11/13 03:21:12;;;;;;;40.57;27.03;;;3.40;99.90;;;;;;5051973;28;20451;-66
2021/11/13 03:23:42;;;;;;;34.00;26.23;;;3.40;99.90;;;;;;5051676;28;20454;-64
2021/11/13 03:26:12;;;;;;;44.47;28.50;;;3.40;99.90;;;;;;5051311;28;20475;-62
2021/11/13 03:28:41;;;;;;;45.23;27.47;;;3.40;99.90;;;;;;5050682;28;20443;-65
2021/11/13 03:31:09;;;;;;;37.30;26.17;;;3.40;99.90;;;;;;5051324;28;20452;-65
2021/11/13 03:33:38;;;;;;;39.40;26.43;;;3.50;99.90;;;;;;5051590;28;20456;-65
2021/11/13 03:36:06;;;;;;;44.40;28.17;;;3.40;99.90;;;;;;5051368;28;20476;-65
2021/11/13 03:38:34;;;;;;;34.53;24.73;;;3.40;99.90;;;;;;5050293;28;20480;-65
2021/11/13 03:41:02;;;;;;;47.17;29.20;;;3.40;99.90;;;;;;5051285;28;20948;-65
2021/11/13 03:43:28;;;;;;;55.77;27.40;;;3.40;99.90;;;;;;5051262;28;20455;-66
2021/11/13 03:45:55;;;;;;;50.53;28.30;;;3.40;99.90;;;;;;5051054;28;20464;-64
2021/11/13 03:48:24;;;;;;;40.70;28.67;;;3.40;99.90;;;;;;5049841;28;20444;-66
2021/11/13 03:50:51;;;;;;;43.97;27.90;;;3.40;99.90;;;;;;5051395;28;20452;-66
2021/11/13 03:53:17;;;;;;;44.07;29.70;;;3.40;99.90;;;;;;5051420;28;20446;-65
2021/11/13 03:55:44;;;;;;;43.57;26.80;;;3.40;99.90;;;;;;5052158;28;20468;-66
2021/11/13 03:58:11;;;;;;;47.37;28.40;;;3.40;99.90;;;;;;5050525;28;20483;-66
2021/11/13 04:00:38;;;;;;;47.63;27.60;;;3.50;99.90;;;;;;5051356;28;20461;-64
2021/11/13 04:03:05;;;;;;;42.40;28.93;;;3.50;99.90;;;;;;5050880;28;20945;-65
2021/11/13 04:05:34;;;;;;;47.70;30.13;;;3.50;99.90;;;;;;5051206;28;20455;-66
2021/11/13 04:08:00;;;;;;;37.40;27.73;;;3.50;99.90;;;;;;5049566;28;20450;-65
2021/11/13 04:10:27;;;;;;;38.90;28.73;;;3.60;99.90;;;;;;5050737;28;20478;-65
2021/11/13 04:12:54;;;;;;;48.40;31.57;;;3.60;99.90;;;;;;5049642;28;20444;-65
2021/11/13 04:15:21;;;;;;;50.13;31.73;;;3.70;99.90;;;;;;5050882;28;20443;-64
2021/11/13 04:17:49;;;;;;;53.47;31.23;;;3.60;99.90;;;;;;5049609;28;20456;-65
2021/11/13 04:20:18;;;;;;;55.17;33.87;;;3.60;99.90;;;;;;5050508;28;20483;-65
2021/11/13 04:22:47;;;;;;;55.43;34.83;;;3.60;99.90;;;;;;5050591;28;20919;-65
2021/11/13 04:25:14;;;;;;;51.30;32.50;;;3.70;99.90;;;;;;5050369;28;20463;-65
2021/11/13 04:27:42;;;;;;;50.93;31.90;;;3.70;99.90;;;;;;5049622;28;20448;-65
2021/11/13 04:30:12;;;;;;;54.20;32.07;;;3.70;99.90;;;;;;5050599;28;20455;-65
2021/11/13 04:32:39;;;;;;;41.63;31.10;;;3.70;99.90;;;;;;5050633;28;20455;-65
2021/11/13 04:35:16;;;;;;;39.90;29.23;;;3.70;99.90;;;;;;5050219;28;20823;-65
2021/11/13 04:37:49;;;;;;;37.63;27.93;;;3.60;99.90;;;;;;5049109;28;20600;-65
2021/11/13 04:40:17;;;;;;;39.33;28.03;;;3.60;99.90;;;;;;5050063;28;20574;-65
2021/11/13 04:42:44;;;;;;;33.43;26.90;;;3.60;99.90;;;;;;5050323;28;20447;-65
2021/11/13 04:45:11;;;;;;;32.00;25.50;;;3.60;99.90;;;;;;5050126;28;20444;-65
2021/11/13 04:47:38;;;;;;;30.60;25.23;;;3.60;99.90;;;;;;5048953;28;20477;-65
2021/11/13 04:50:07;;;;;;;28.90;23.30;;;3.60;99.90;;;;;;5050139;28;20438;-65
2021/11/13 04:52:34;;;;;;;31.73;24.43;;;3.60;99.90;;;;;;5049808;28;20450;-66
2021/11/13 04:55:02;;;;;;;32.50;26.00;;;3.70;99.90;;;;;;5050144;28;20450;-65
2021/11/13 04:57:29;;;;;;;31.87;24.90;;;3.70;99.90;;;;;;5048720;28;20824;-65
2021/11/13 04:59:56;;;;;;;29.00;23.93;;;3.70;99.90;;;;;;5049883;28;21133;-65
2021/11/13 05:02:23;;;;;;;32.10;23.40;;;3.70;99.90;;;;;;5049603;28;20466;-65
2021/11/13 05:04:54;;;;;;;30.60;24.40;;;3.70;99.90;;;;;;5049773;28;20856;-65
2021/11/13 05:07:21;;;;;;;30.90;24.40;;;3.80;99.90;;;;;;5048680;28;20479;-64
2021/11/13 05:09:49;;;;;;;27.43;23.40;;;3.80;99.90;;;;;;5049985;28;20444;-65
2021/11/13 05:12:18;;;;;;;30.20;24.03;;;3.80;99.90;;;;;;5049541;28;20456;-65
2021/11/13 05:14:45;;;;;;;30.70;23.87;;;3.90;99.90;;;;;;5049796;28;20824;-65
2021/11/13 05:17:11;;;;;;;33.30;24.63;;;3.80;99.90;;;;;;5048258;28;21013;-66
2021/11/13 05:19:38;;;;;;;30.13;23.73;;;3.80;99.90;;;;;;5049482;28;20490;-65
2021/11/13 05:22:05;;;;;;;30.90;24.83;;;3.70;99.90;;;;;;5049556;28;20454;-65
2021/11/13 05:24:32;;;;;;;32.17;24.00;;;3.70;99.90;;;;;;5049481;28;20443;-66
2021/11/13 05:26:59;;;;;;;32.70;25.37;;;3.70;99.90;;;;;;5048402;28;20570;-64
2021/11/13 05:29:27;;;;;;;30.53;25.33;;;3.70;99.90;;;;;;5049536;28;20449;-64
2021/11/13 05:31:54;;;;;;;30.47;24.60;;;3.80;99.90;;;;;;5049483;28;20440;-63
2021/11/13 05:34:21;;;;;;;31.57;24.57;;;3.80;99.90;;;;;;5049772;28;20456;-65
2021/11/13 05:36:48;;;;;;;26.97;21.97;;;3.70;99.90;;;;;;5048278;28;21376;-64
2021/11/13 05:39:15;;;;;;;28.00;22.50;;;3.70;99.90;;;;;;5049128;28;20995;-65
2021/11/13 05:41:42;;;;;;;28.60;22.83;;;3.70;99.90;;;;;;5049601;28;20444;-65
2021/11/13 05:44:09;;;;;;;27.10;23.50;;;3.60;99.90;;;;;;5049503;28;20455;-64
2021/11/13 05:46:37;;;;;;;29.17;23.57;;;3.60;99.90;;;;;;5048377;28;20474;-64
2021/11/13 05:49:04;;;;;;;29.27;23.30;;;3.60;99.90;;;;;;5049893;28;20444;-65
2021/11/13 05:51:31;;;;;;;27.93;23.47;;;3.70;99.90;;;;;;5049842;28;20576;-64
2021/11/13 05:53:58;;;;;;;27.77;22.97;;;3.70;99.90;;;;;;5049758;28;20468;-65
2021/11/13 05:56:25;;;;;;;26.20;21.33;;;3.70;99.90;;;;;;5048646;28;20473;-64
2021/11/13 05:58:51;;;;;;;26.80;22.70;;;3.70;99.90;;;;;;5049112;28;20471;-66
2021/11/13 06:01:18;;;;;;;28.10;22.47;;;3.70;99.90;;;;;;5049368;28;20452;-64
2021/11/13 06:03:46;;;;;;;27.33;22.57;;;3.70;99.90;;;;;;5049409;28;20980;-64
2021/11/13 06:06:13;;;;;;;25.63;21.10;;;3.70;99.90;;;;;;5048905;28;20478;-65
2021/11/13 06:08:40;;;;;;;27.05;22.42;;;3.80;99.90;;;;;;5048707;28;20535;-65
2021/11/13 06:11:07;;;;;;;26.67;21.17;;;3.80;99.90;;;;;;5049001;28;20218;-65
2021/11/13 06:13:34;;;;;;;24.83;20.37;;;3.80;99.90;;;;;;5049042;28;20452;-66
2021/11/13 06:16:02;;;;;;;26.13;21.23;;;3.80;99.90;;;;;;5049218;28;20900;-64
2021/11/13 06:18:30;;;;;;;24.47;21.13;;;3.80;99.90;;;;;;5048303;28;20892;-64
2021/11/13 06:20:58;;;;;;;21.97;19.67;;;3.80;99.90;;;;;;5049055;28;20477;-64
2021/11/13 06:23:25;;;;;;;23.00;19.83;;;3.80;99.90;;;;;;5048956;28;20557;-64
2021/11/13 06:25:52;;;;;;;22.40;19.60;;;3.80;99.90;;;;;;5049039;28;20470;-63
2021/11/13 06:28:18;;;;;;;25.17;21.00;;;3.90;99.90;;;;;;5047598;28;20475;-66
2021/11/13 06:30:45;;;;;;;22.30;20.00;;;3.90;99.90;;;;;;5049124;28;20462;-65
2021/11/13 06:33:12;;;;;;;21.70;19.37;;;3.90;99.90;;;;;;5049024;28;20849;-64
2021/11/13 06:35:39;;;;;;;23.13;20.63;;;3.90;99.90;;;;;;5049902;28;20563;-64
2021/11/13 06:38:07;;;;;;;24.67;20.37;;;4.00;99.90;;;;;;5051193;28;20447;-65
2021/11/13 06:40:34;;;;;;;23.27;20.43;;;4.00;99.90;;;;;;5052689;28;20475;-65
2021/11/13 06:43:01;;;;;;;22.53;18.73;;;4.00;99.90;;;;;;5052149;28;20950;-67
2021/11/13 06:45:28;;;;;;;22.73;20.20;;;4.00;99.90;;;;;;5052171;28;20462;-66
2021/11/13 06:47:55;;;;;;;23.27;19.50;;;4.00;99.90;;;;;;5051197;28;20491;-65
2021/11/13 06:50:22;;;;;;;24.10;19.70;;;4.00;99.90;;;;;;5052063;28;20484;-66
2021/11/13 06:52:49;;;;;;;24.57;19.43;;;3.90;99.90;;;;;;5052111;28;20453;-66
2021/11/13 06:55:17;;;;;;;23.20;18.90;;;3.90;99.90;;;;;;5051759;28;20842;-65
2021/11/13 06:57:45;;;;;;;23.73;20.33;;;3.90;99.90;;;;;;5051124;28;20453;-66
2021/11/13 07:00:15;;;;;;;24.00;20.17;;;3.90;99.90;;;;;;5051904;28;20484;-67
2021/11/13 07:02:42;;;;;;;23.27;19.30;;;3.90;99.90;;;;;;5052118;28;20479;-66
2021/11/13 07:05:10;;;;;;;22.23;19.20;;;4.00;99.90;;;;;;5051803;28;21175;-65
2021/11/13 07:07:37;;;;;;;21.60;18.70;;;4.10;99.90;;;;;;5050825;28;20459;-65
2021/11/13 07:10:07;;;;;;;21.47;19.17;;;4.10;99.90;;;;;;5051627;28;20460;-65
2021/11/13 07:12:35;;;;;;;20.27;17.90;;;4.20;99.90;;;;;;5052048;28;20466;-62
2021/11/13 07:15:03;;;;;;;22.20;19.43;;;4.20;99.90;;;;;;5051723;28;20444;-65
2021/11/13 07:17:30;;;;;;;23.20;18.17;;;4.30;99.90;;;;;;5050463;28;20463;-66
2021/11/13 07:19:56;;;;;;;21.33;19.03;;;4.30;99.90;;;;;;5051522;28;20946;-67
2021/11/13 07:22:24;;;;;;;20.00;17.90;;;4.30;99.90;;;;;;5051245;28;20536;-66
2021/11/13 07:24:51;;;;;;;22.10;17.30;;;4.30;99.90;;;;;;5051723;28;20447;-67
2021/11/13 07:27:18;;;;;;;20.80;17.43;;;4.30;99.90;;;;;;5050065;28;21001;-65
2021/11/13 07:29:47;;;;;;;20.70;17.37;;;4.30;99.90;;;;;;5051566;28;20458;-66
2021/11/13 07:32:15;;;;;;;20.63;18.53;;;4.30;99.90;;;;;;5051151;28;20954;-65
2021/11/13 07:34:43;;;;;;;18.97;16.97;;;4.30;99.90;;;;;;5051429;28;20452;-65
2021/11/13 07:37:10;;;;;;;19.07;17.03;;;4.30;99.90;;;;;;5049913;28;20474;-65
2021/11/13 07:39:37;;;;;;;18.77;16.83;;;4.30;99.90;;;;;;5051168;28;20480;-66
2021/11/13 07:42:04;;;;;;;19.60;16.93;;;4.20;99.90;;;;;;5051301;28;20467;-66
2021/11/13 07:44:32;;;;;;;19.57;17.07;;;4.20;99.90;;;;;;5051357;28;20441;-65
2021/11/13 07:47:00;;;;;;;19.23;17.10;;;4.30;99.90;;;;;;5048240;28;20468;-66
2021/11/13 07:49:27;;;;;;;18.23;16.25;;;4.30;99.90;;;;;;5050371;28;20446;-65
2021/11/13 07:51:54;;;;;;;19.77;17.67;;;4.40;99.90;;;;;;5044606;28;20202;-65
2021/11/13 07:54:21;;;;;;;19.40;16.60;;;4.40;99.90;;;;;;5030736;28;20450;-66
2021/11/13 07:56:49;;;;;;;16.57;14.77;;;4.40;99.90;;;;;;5029868;28;20484;-66
2021/11/13 07:59:16;;;;;;;19.30;16.77;;;4.60;99.90;;;;;;5030625;28;20446;-66
2021/11/13 08:01:43;;;;;;;17.50;15.70;;;4.60;99.90;;;;;;5030930;28;21061;-66
2021/11/13 08:04:11;;;;;;;17.90;16.00;;;4.70;99.90;;;;;;5030696;28;20452;-65
2021/11/13 08:06:38;;;;;;;17.97;15.97;;;4.80;99.90;;;;;;5029876;28;20918;-65
2021/11/13 08:09:05;;;;;;;18.47;16.50;;;4.90;99.90;;;;;;5030729;28;20454;-66
2021/11/13 08:11:32;;;;;;;18.67;16.43;;;5.00;99.90;;;;;;5030815;28;20484;-65
2021/11/13 08:13:59;;;;;;;15.90;14.23;;;5.10;99.90;;;;;;5045399;28;20831;-66
2021/11/13 08:16:26;;;;;;;16.73;15.07;;;5.30;99.90;;;;;;5044872;28;20555;-66
2021/11/13 08:18:53;;;;;;;18.30;16.33;;;5.50;99.90;;;;;;5038972;28;20447;-66
2021/11/13 08:21:23;;;;;;;18.90;16.90;;;5.70;99.90;;;;;;5047228;28;20496;-65
2021/11/13 08:23:50;;;;;;;16.33;14.70;;;6.00;99.90;;;;;;5046785;28;20962;-67
2021/11/13 08:26:17;;;;;;;19.60;14.73;;;6.00;99.90;;;;;;5049460;28;20475;-64
2021/11/13 08:28:43;;;;;;;17.57;15.70;;;6.10;99.90;;;;;;5050365;28;20445;-65
2021/11/13 08:31:10;;;;;;;16.87;15.07;;;6.10;99.90;;;;;;5042794;28;20468;-66
2021/11/13 08:33:37;;;;;;;16.93;14.30;;;6.10;99.90;;;;;;5046163;28;20448;-65
2021/11/13 08:36:05;;;;;;;17.07;14.70;;;6.10;99.90;;;;;;5043242;28;20467;-65
2021/11/13 08:38:33;;;;;;;16.87;15.13;;;6.20;99.90;;;;;;5048282;28;20452;-66
2021/11/13 08:41:01;;;;;;;17.40;15.60;;;6.30;99.90;;;;;;5041341;28;20477;-65
2021/11/13 08:43:28;;;;;;;18.90;15.13;;;6.30;99.90;;;;;;5045074;28;20518;-64
2021/11/13 08:45:55;;;;;;;16.40;14.60;;;6.40;99.90;;;;;;5043130;28;20474;-66
2021/11/13 08:48:22;;;;;;;17.37;15.67;;;6.50;99.90;;;;;;5043374;28;20448;-65
2021/11/13 08:50:49;;;;;;;16.30;14.70;;;6.30;99.90;;;;;;5047032;28;21012;-65
2021/11/13 08:53:16;;;;;;;17.93;16.10;;;6.30;99.90;;;;;;5042198;28;20447;-63
2021/11/13 08:55:45;;;;;;;18.73;16.70;;;6.20;99.90;;;;;;5043534;28;20459;-65
2021/11/13 08:58:12;;;;;;;18.37;16.27;;;6.10;99.90;;;;;;5047605;28;20433;-64
2021/11/13 09:00:46;;;;;;;16.90;15.20;;;6.10;99.90;;;;;;5049871;28;20476;-65
2021/11/13 09:03:17;;;;;;;18.53;16.57;;;6.00;99.90;;;;;;5046050;28;20792;-65
2021/11/13 09:05:44;;;;;;;19.17;16.90;;;6.10;99.90;;;;;;5049988;28;20456;-62
2021/11/13 09:08:11;;;;;;;19.43;16.40;;;6.00;99.90;;;;;;5048419;28;20436;-66
2021/11/13 09:10:38;;;;;;;17.33;14.93;;;6.00;99.90;;;;;;5049927;28;20436;-64
2021/11/13 09:13:10;;;;;;;16.73;15.03;;;6.00;99.90;;;;;;5049565;28;20445;-64
2021/11/13 09:15:37;;;;;;;16.50;14.80;;;6.10;99.90;;;;;;5049220;28;20456;-64
2021/11/13 09:18:05;;;;;;;17.97;16.07;;;6.20;99.90;;;;;;5048783;28;20451;-65
2021/11/13 09:20:32;;;;;;;16.50;14.90;;;6.30;99.90;;;;;;5049525;28;20472;-66
2021/11/13 09:22:59;;;;;;;15.93;14.33;;;6.60;99.90;;;;;;5049626;28;20441;-66
2021/11/13 09:25:26;;;;;;;16.07;14.47;;;6.80;99.90;;;;;;5049574;28;20531;-66
2021/11/13 09:27:54;;;;;;;17.07;15.47;;;7.20;99.90;;;;;;5048504;28;20436;-64
2021/11/13 09:30:25;;;;;;;16.33;14.70;;;7.40;99.90;;;;;;5049481;28;20435;-65
2021/11/13 09:32:54;;;;;;;15.23;13.70;;;7.60;99.90;;;;;;5049685;28;20449;-66
2021/11/13 09:35:21;;;;;;;15.90;14.20;;;8.00;99.90;;;;;;5049257;28;20923;-65
2021/11/13 09:37:48;;;;;;;15.43;13.80;;;8.30;99.90;;;;;;5047650;28;20447;-66
2021/11/13 09:40:18;;;;;;;15.17;13.67;;;8.60;99.90;;;;;;5039694;28;21022;-67
2021/11/13 09:42:46;;;;;;;16.30;14.60;;;8.80;99.90;;;;;;5042434;28;20463;-67
2021/11/13 09:45:13;;;;;;;16.50;14.85;;;8.80;99.90;;;;;;5043052;28;20439;-68
2021/11/13 09:47:43;;;;;;;14.60;13.10;;;9.10;99.90;;;;;;5040419;28;20213;-66
2021/11/13 09:50:12;;;;;;;15.63;14.03;;;9.20;99.90;;;;;;5040191;28;20438;-65
2021/11/13 09:52:40;;;;;;;14.47;13.07;;;9.50;99.90;;;;;;5038827;28;20429;-68
2021/11/13 09:55:09;;;;;;;15.87;14.07;;;9.50;99.90;;;;;;5040188;28;20441;-67
2021/11/13 09:57:38;;;;;;;15.10;13.60;;;9.70;99.90;;;;;;5045069;28;20459;-66
2021/11/13 10:00:07;;;;;;;16.03;14.40;;;9.80;99.90;;;;;;5042483;28;20473;-65
2021/11/13 10:02:33;;;;;;;15.70;14.00;;;10.10;99.90;;;;;;5045023;28;20460;-63
2021/11/13 10:05:02;;;;;;;14.90;13.40;;;10.20;99.90;;;;;;5042522;28;20448;-65
2021/11/13 10:07:32;;;;;;;15.50;13.60;;;10.00;99.90;;;;;;5046610;28;20464;-65
2021/11/13 10:09:58;;;;;;;14.37;13.07;;;9.80;99.90;;;;;;5047967;28;20455;-63
2021/11/13 10:12:34;;;;;;;16.83;15.13;;;9.70;99.90;;;;;;5049438;28;20822;-63
2021/11/13 10:15:01;;;;;;;17.03;15.23;;;9.40;99.90;;;;;;5047983;28;20535;-67
2021/11/13 10:17:28;;;;;;;18.20;15.97;;;9.00;99.90;;;;;;5048551;28;20476;-67
2021/11/13 10:19:55;;;;;;;15.73;14.23;;;8.80;99.90;;;;;;5048271;28;20480;-67
2021/11/13 10:22:23;;;;;;;16.10;14.47;;;8.70;99.90;;;;;;5048779;28;20455;-65
2021/11/13 10:24:53;;;;;;;17.47;15.70;;;8.70;99.90;;;;;;5048541;28;20476;-65
2021/11/13 10:27:21;;;;;;;18.20;16.30;;;8.70;99.90;;;;;;5045971;28;20464;-65
2021/11/13 10:29:48;;;;;;;15.90;13.93;;;8.60;99.90;;;;;;5046772;28;21110;-67
2021/11/13 10:32:17;;;;;;;16.50;14.80;;;8.60;99.90;;;;;;5048541;28;20503;-68
2021/11/13 10:34:46;;;;;;;17.13;15.43;;;8.70;99.90;;;;;;5051555;28;20201;-66
2021/11/13 10:37:17;;;;;;;18.60;16.60;;;8.70;99.90;;;;;;5047889;28;20521;-66
2021/11/13 10:39:46;;;;;;;14.30;12.90;;;8.80;99.90;;;;;;5045281;28;20456;-67
2021/11/13 10:42:16;;;;;;;18.03;15.40;;;8.80;99.90;;;;;;5048593;28;20507;-68
2021/11/13 10:44:48;;;;;;;18.40;14.87;;;8.90;99.90;;;;;;5044075;28;20455;-67
2021/11/13 10:47:18;;;;;;;17.17;15.40;;;8.90;99.90;;;;;;5048301;28;20456;-66
2021/11/13 10:49:47;;;;;;;19.67;17.60;;;9.00;99.90;;;;;;5037914;28;20449;-65
2021/11/13 10:52:14;;;;;;;16.43;14.70;;;9.10;99.90;;;;;;5031351;28;20451;-66
2021/11/13 10:54:45;;;;;;;17.73;15.83;;;9.20;99.90;;;;;;5045160;28;21294;-65
2021/11/13 10:57:12;;;;;;;19.03;15.57;;;9.00;99.90;;;;;;5046202;28;20453;-64
2021/11/13 10:59:42;;;;;;;18.70;16.47;;;8.70;99.90;;;;;;5046871;28;20445;-65
2021/11/13 11:02:11;;;;;;;16.30;14.70;;;8.50;99.90;;;;;;5048245;28;20484;-65
2021/11/13 11:04:39;;;;;;;17.13;15.23;;;8.40;99.90;;;;;;5048571;28;20441;-64
2021/11/13 11:07:09;;;;;;;16.60;15.00;;;8.30;99.90;;;;;;5047850;28;20472;-66
2021/11/13 11:09:37;;;;;;;16.37;14.60;;;8.40;99.90;;;;;;5050324;28;20547;-65
2021/11/13 11:12:09;;;;;;;21.00;15.20;;;8.50;99.90;;;;;;5050104;28;20823;-65
2021/11/13 11:14:39;;;;;;;16.33;14.63;;;8.50;99.90;;;;;;5049402;28;20543;-65
2021/11/13 11:17:09;;;;;;;17.93;14.17;;;8.50;99.90;;;;;;5044802;28;20989;-64
2021/11/13 11:19:37;;;;;;;16.97;15.20;;;8.40;99.90;;;;;;5049129;28;20451;-65
2021/11/13 11:22:07;;;;;;;17.30;15.43;;;8.40;99.90;;;;;;5043919;28;20571;-65
2021/11/13 11:24:37;;;;;;;17.67;15.40;;;8.50;99.90;;;;;;5049649;28;20457;-65
2021/11/13 11:27:13;;;;;;;20.50;15.80;;;8.60;99.90;;;;;;5049378;28;20461;-65
2021/11/13 11:29:47;;;;;;;19.40;16.47;;;8.80;99.90;;;;;;5049884;28;20454;-65
2021/11/13 11:32:15;;;;;;;18.30;15.77;;;8.90;99.90;;;;;;5046677;28;20449;-65
2021/11/13 11:34:44;;;;;;;19.53;15.57;;;9.00;99.90;;;;;;5049925;28;20535;-64
2021/11/13 11:37:16;;;;;;;17.60;15.80;;;9.10;99.90;;;;;;5048734;28;20465;-64
2021/11/13 11:39:45;;;;;;;17.40;15.67;;;9.20;99.90;;;;;;5042629;28;21071;-65
2021/11/13 11:42:14;;;;;;;18.70;16.80;;;9.30;99.90;;;;;;5043699;28;20478;-65
2021/11/13 11:44:44;;;;;;;18.03;16.23;;;9.30;99.90;;;;;;5043755;28;20444;-64
2021/11/13 11:47:12;;;;;;;18.77;16.77;;;9.30;99.90;;;;;;5043005;28;20547;-65
2021/11/13 11:49:43;;;;;;;18.60;16.63;;;9.10;99.90;;;;;;5041770;28;20984;-65
2021/11/13 11:52:11;;;;;;;17.63;15.83;;;9.20;99.90;;;;;;5044792;28;20447;-65
2021/11/13 11:54:39;;;;;;;17.83;16.13;;;9.10;99.90;;;;;;5049139;28;20455;-65
2021/11/13 11:57:06;;;;;;;18.50;16.70;;;9.10;99.90;;;;;;5048162;28;20830;-66
2021/11/13 11:59:36;;;;;;;19.17;16.03;;;9.20;99.90;;;;;;5049328;28;20450;-65
2021/11/13 12:02:12;;;;;;;19.60;17.70;;;9.00;99.90;;;;;;5049409;28;20483;-64
2021/11/13 12:04:39;;;;;;;18.07;16.10;;;8.80;99.90;;;;;;5047480;28;20453;-64
2021/11/13 12:07:07;;;;;;;17.87;16.13;;;8.90;99.90;;;;;;5048301;28;20460;-65
2021/11/13 12:09:34;;;;;;;18.23;15.03;;;8.90;99.90;;;;;;5049245;28;20472;-66
2021/11/13 12:12:16;;;;;;;17.07;14.93;;;8.90;99.90;;;;;;5048984;28;20999;-65
2021/11/13 12:14:45;;;;;;;18.20;15.47;;;9.00;99.90;;;;;;5049898;28;20447;-65
2021/11/13 12:17:33;;;;;;;18.17;16.23;;;9.00;99.90;;;;;;5043163;28;20479;-66
2021/11/13 12:20:33;;;;;;;16.50;15.00;;;9.00;99.90;;;;;;5043968;28;20456;-64
2021/11/13 12:23:15;;;;;;;17.70;15.80;;;9.10;99.90;;;;;;5042321;28;20866;-65
2021/11/13 12:25:56;;;;;;;18.17;15.20;;;9.10;99.90;;;;;;5044872;28;21253;-66
2021/11/13 12:28:24;;;;;;;18.53;16.50;;;9.20;99.90;;;;;;5039279;28;20522;-64
2021/11/13 12:31:11;;;;;;;17.57;15.77;;;9.30;99.90;;;;;;5043636;28;20536;-65
2021/11/13 12:34:04;;;;;;;19.90;17.83;;;9.40;99.90;;;;;;5045948;28;20462;-64
2021/11/13 12:36:36;;;;;;;18.67;16.07;;;9.50;99.90;;;;;;5043151;28;20479;-66
2021/11/13 12:39:15;;;;;;;18.03;16.00;;;9.60;99.90;;;;;;5047199;28;20448;-64
2021/11/13 12:42:02;;;;;;;18.57;16.67;;;9.60;99.90;;;;;;5045100;28;20564;-64